sensor_id;sensor_type;location;lat;lon;timestamp;pressure;altitude;pressure_sealevel;temperature;humidity
48718;BME280;34521;33.042;-96.586;2023-04-20T00:01:50;98985.48;;;21.01;37.47
48718;BME280;34521;33.042;-96.586;2023-04-20T00:04:15;98991.56;;;20.63;38.90
48718;BME280;34521;33.042;-96.586;2023-04-20T00:06:40;98979.12;;;21.95;36.35
48718;BME280;34521;33.042;-96.586;2023-04-20T00:09:05;98982.11;;;22.04;36.06
48718;BME280;34521;33.042;-96.586;2023-04-20T00:13:55;98975.15;;;22.55;35.54
48718;BME280;34521;33.042;-96.586;2023-04-20T00:16:20;98973.77;;;22.64;35.47
48718;BME280;34521;33.042;-96.586;2023-04-20T00:18:45;98970.96;;;22.14;36.15
48718;BME280;34521;33.042;-96.586;2023-04-20T00:21:11;98973.24;;;22.15;35.84
48718;BME280;34521;33.042;-96.586;2023-04-20T00:23:35;98965.05;;;22.82;35.33
48718;BME280;34521;33.042;-96.586;2023-04-20T00:26:01;98962.35;;;21.30;37.63
48718;BME280;34521;33.042;-96.586;2023-04-20T00:28:25;98955.27;;;21.54;37.15
48718;BME280;34521;33.042;-96.586;2023-04-20T00:30:50;98945.91;;;21.27;38.84
48718;BME280;34521;33.042;-96.586;2023-04-20T00:33:16;98942.95;;;22.57;35.79
48718;BME280;34521;33.042;-96.586;2023-04-20T00:35:40;98937.36;;;22.96;35.07
48718;BME280;34521;33.042;-96.586;2023-04-20T00:38:06;98938.13;;;22.32;35.66
48718;BME280;34521;33.042;-96.586;2023-04-20T00:40:31;98933.72;;;22.12;35.72
48718;BME280;34521;33.042;-96.586;2023-04-20T00:42:56;98939.28;;;21.97;36.32
48718;BME280;34521;33.042;-96.586;2023-04-20T00:45:22;98938.65;;;22.23;35.82
48718;BME280;34521;33.042;-96.586;2023-04-20T00:47:46;98942.13;;;22.04;36.17
48718;BME280;34521;33.042;-96.586;2023-04-20T00:50:11;98947.78;;;21.51;36.73
48718;BME280;34521;33.042;-96.586;2023-04-20T00:52:36;98953.00;;;21.03;36.61
48718;BME280;34521;33.042;-96.586;2023-04-20T00:55:01;98960.32;;;21.25;36.65
48718;BME280;34521;33.042;-96.586;2023-04-20T00:57:27;98966.99;;;21.14;36.25
48718;BME280;34521;33.042;-96.586;2023-04-20T00:59:51;98965.10;;;21.59;35.84
48718;BME280;34521;33.042;-96.586;2023-04-20T01:02:16;98968.29;;;21.70;36.05
48718;BME280;34521;33.042;-96.586;2023-04-20T01:04:41;98971.06;;;21.82;36.05
48718;BME280;34521;33.042;-96.586;2023-04-20T01:07:06;98975.11;;;21.61;36.11
48718;BME280;34521;33.042;-96.586;2023-04-20T01:09:31;98972.83;;;21.65;36.18
48718;BME280;34521;33.042;-96.586;2023-04-20T01:11:56;98971.12;;;21.57;36.41
48718;BME280;34521;33.042;-96.586;2023-04-20T01:14:21;98972.64;;;21.98;36.03
48718;BME280;34521;33.042;-96.586;2023-04-20T01:16:47;98974.66;;;21.01;37.30
48718;BME280;34521;33.042;-96.586;2023-04-20T01:19:12;98979.65;;;21.18;36.39
48718;BME280;34521;33.042;-96.586;2023-04-20T01:21:36;98973.65;;;21.07;36.38
48718;BME280;34521;33.042;-96.586;2023-04-20T01:24:01;98977.09;;;21.19;36.54
48718;BME280;34521;33.042;-96.586;2023-04-20T01:26:27;98981.66;;;21.60;35.70
48718;BME280;34521;33.042;-96.586;2023-04-20T01:28:52;98983.88;;;21.81;35.46
48718;BME280;34521;33.042;-96.586;2023-04-20T01:31:17;98991.62;;;21.65;36.22
48718;BME280;34521;33.042;-96.586;2023-04-20T01:33:42;99000.57;;;21.73;35.94
48718;BME280;34521;33.042;-96.586;2023-04-20T01:36:08;99011.74;;;21.67;36.14
48718;BME280;34521;33.042;-96.586;2023-04-20T01:38:33;99016.61;;;21.47;36.18
48718;BME280;34521;33.042;-96.586;2023-04-20T01:40:57;99021.13;;;21.50;36.25
48718;BME280;34521;33.042;-96.586;2023-04-20T01:43:23;99025.05;;;20.60;37.34
48718;BME280;34521;33.042;-96.586;2023-04-20T01:45:47;99024.27;;;21.18;36.40
48718;BME280;34521;33.042;-96.586;2023-04-20T01:48:12;99034.48;;;20.85;36.16
48718;BME280;34521;33.042;-96.586;2023-04-20T01:50:38;99040.21;;;21.19;36.37
48718;BME280;34521;33.042;-96.586;2023-04-20T01:53:03;99041.57;;;21.47;35.66
48718;BME280;34521;33.042;-96.586;2023-04-20T01:55:28;99049.36;;;21.48;36.05
48718;BME280;34521;33.042;-96.586;2023-04-20T01:57:52;99055.08;;;21.55;35.72
48718;BME280;34521;33.042;-96.586;2023-04-20T02:00:18;99058.61;;;21.65;35.77
48718;BME280;34521;33.042;-96.586;2023-04-20T02:02:43;99055.16;;;21.59;35.95
48718;BME280;34521;33.042;-96.586;2023-04-20T02:05:08;99062.58;;;21.62;36.06
48718;BME280;34521;33.042;-96.586;2023-04-20T02:07:33;99060.63;;;21.89;35.80
48718;BME280;34521;33.042;-96.586;2023-04-20T02:09:58;99068.23;;;21.73;35.79
48718;BME280;34521;33.042;-96.586;2023-04-20T02:12:23;99074.14;;;20.44;37.51
48718;BME280;34521;33.042;-96.586;2023-04-20T02:14:48;99078.48;;;21.33;35.99
48718;BME280;34521;33.042;-96.586;2023-04-20T02:17:13;99078.61;;;20.78;36.20
48718;BME280;34521;33.042;-96.586;2023-04-20T02:19:38;99081.04;;;21.17;36.31
48718;BME280;34521;33.042;-96.586;2023-04-20T02:22:03;99084.13;;;21.23;35.50
48718;BME280;34521;33.042;-96.586;2023-04-20T02:24:28;99083.92;;;21.47;35.91
48718;BME280;34521;33.042;-96.586;2023-04-20T02:26:53;99086.29;;;21.02;36.31
48718;BME280;34521;33.042;-96.586;2023-04-20T02:29:18;99091.25;;;21.28;36.11
48718;BME280;34521;33.042;-96.586;2023-04-20T02:31:43;99095.77;;;21.81;35.86
48718;BME280;34521;33.042;-96.586;2023-04-20T02:34:08;99104.33;;;21.70;36.10
48718;BME280;34521;33.042;-96.586;2023-04-20T02:36:33;99106.55;;;22.03;35.79
48718;BME280;34521;33.042;-96.586;2023-04-20T02:38:59;99111.69;;;21.99;35.62
48718;BME280;34521;33.042;-96.586;2023-04-20T02:41:24;99128.03;;;20.64;37.26
48718;BME280;34521;33.042;-96.586;2023-04-20T02:43:48;99131.19;;;20.89;36.92
48718;BME280;34521;33.042;-96.586;2023-04-20T02:46:14;99143.44;;;20.54;36.22
48718;BME280;34521;33.042;-96.586;2023-04-20T02:48:39;99146.93;;;21.04;37.86
48718;BME280;34521;33.042;-96.586;2023-04-20T02:51:04;99159.82;;;21.09;37.21
48718;BME280;34521;33.042;-96.586;2023-04-20T02:53:29;99172.44;;;21.32;36.89
48718;BME280;34521;33.042;-96.586;2023-04-20T02:55:54;99173.17;;;21.38;36.77
48718;BME280;34521;33.042;-96.586;2023-04-20T02:58:19;99183.99;;;21.24;36.69
48718;BME280;34521;33.042;-96.586;2023-04-20T03:00:44;99194.99;;;21.62;36.23
48718;BME280;34521;33.042;-96.586;2023-04-20T03:03:09;99204.26;;;21.68;36.20
48718;BME280;34521;33.042;-96.586;2023-04-20T03:05:34;99213.93;;;21.38;36.33
48718;BME280;34521;33.042;-96.586;2023-04-20T03:07:59;99215.06;;;21.58;36.40
48718;BME280;34521;33.042;-96.586;2023-04-20T03:10:24;99212.38;;;21.40;36.48
48718;BME280;34521;33.042;-96.586;2023-04-20T03:12:49;99214.31;;;21.72;36.00
48718;BME280;34521;33.042;-96.586;2023-04-20T03:15:15;99225.49;;;19.95;38.43
48718;BME280;34521;33.042;-96.586;2023-04-20T03:17:40;99225.57;;;20.20;37.12
48718;BME280;34521;33.042;-96.586;2023-04-20T03:20:06;99231.48;;;20.91;36.61
48718;BME280;34521;33.042;-96.586;2023-04-20T03:22:30;99222.90;;;21.37;36.01
48718;BME280;34521;33.042;-96.586;2023-04-20T03:24:55;99233.35;;;21.24;35.92
48718;BME280;34521;33.042;-96.586;2023-04-20T03:27:20;99235.75;;;21.21;36.04
48718;BME280;34521;33.042;-96.586;2023-04-20T03:29:45;99238.02;;;21.50;36.06
48718;BME280;34521;33.042;-96.586;2023-04-20T03:32:10;99239.15;;;21.46;35.92
48718;BME280;34521;33.042;-96.586;2023-04-20T03:34:35;99238.65;;;21.60;35.83
48718;BME280;34521;33.042;-96.586;2023-04-20T03:37:00;99244.20;;;21.32;36.36
48718;BME280;34521;33.042;-96.586;2023-04-20T03:39:25;99247.87;;;21.38;36.30
48718;BME280;34521;33.042;-96.586;2023-04-20T03:41:50;99254.62;;;20.84;38.98
48718;BME280;34521;33.042;-96.586;2023-04-20T03:44:15;99254.52;;;21.68;39.05
48718;BME280;34521;33.042;-96.586;2023-04-20T03:46:40;99254.52;;;21.15;39.86
48718;BME280;34521;33.042;-96.586;2023-04-20T03:49:05;99242.57;;;21.27;39.68
48718;BME280;34521;33.042;-96.586;2023-04-20T03:51:31;99239.78;;;21.47;39.20
48718;BME280;34521;33.042;-96.586;2023-04-20T03:53:55;99236.65;;;21.49;39.06
48718;BME280;34521;33.042;-96.586;2023-04-20T03:56:20;99233.83;;;21.77;38.77
48718;BME280;34521;33.042;-96.586;2023-04-20T03:58:45;99227.52;;;20.56;39.82
48718;BME280;34521;33.042;-96.586;2023-04-20T04:01:10;99218.28;;;20.19;39.18
48718;BME280;34521;33.042;-96.586;2023-04-20T04:03:40;99216.87;;;20.46;37.79
48718;BME280;34521;33.042;-96.586;2023-04-20T04:06:01;99217.43;;;20.97;37.58
48718;BME280;34521;33.042;-96.586;2023-04-20T04:08:26;99204.24;;;20.91;37.57
48718;BME280;34521;33.042;-96.586;2023-04-20T04:10:51;99209.20;;;20.99;37.53
48718;BME280;34521;33.042;-96.586;2023-04-20T04:13:16;99212.65;;;21.26;36.86
48718;BME280;34521;33.042;-96.586;2023-04-20T04:15:41;99213.16;;;21.07;36.88
48718;BME280;34521;33.042;-96.586;2023-04-20T04:18:06;99217.84;;;21.74;36.71
48718;BME280;34521;33.042;-96.586;2023-04-20T04:20:31;99222.43;;;21.32;36.59
48718;BME280;34521;33.042;-96.586;2023-04-20T04:22:56;99213.16;;;21.46;36.85
48718;BME280;34521;33.042;-96.586;2023-04-20T04:25:21;99214.71;;;21.66;36.70
48718;BME280;34521;33.042;-96.586;2023-04-20T04:27:46;99210.98;;;21.96;36.61
48718;BME280;34521;33.042;-96.586;2023-04-20T04:30:12;99207.42;;;21.45;37.49
48718;BME280;34521;33.042;-96.586;2023-04-20T04:32:36;99200.69;;;19.73;38.95
48718;BME280;34521;33.042;-96.586;2023-04-20T04:35:01;99197.33;;;20.59;36.97
48718;BME280;34521;33.042;-96.586;2023-04-20T04:37:26;99191.49;;;20.86;36.93
48718;BME280;34521;33.042;-96.586;2023-04-20T04:39:51;99193.62;;;20.98;37.05
48718;BME280;34521;33.042;-96.586;2023-04-20T04:42:16;99190.63;;;21.02;36.79
48718;BME280;34521;33.042;-96.586;2023-04-20T04:44:41;99188.64;;;21.48;36.28
48718;BME280;34521;33.042;-96.586;2023-04-20T04:47:06;99177.94;;;20.85;39.17
48718;BME280;34521;33.042;-96.586;2023-04-20T04:49:31;99173.83;;;21.41;37.69
48718;BME280;34521;33.042;-96.586;2023-04-20T04:51:57;99177.29;;;21.23;38.03
48718;BME280;34521;33.042;-96.586;2023-04-20T04:54:21;99183.51;;;21.31;37.82
48718;BME280;34521;33.042;-96.586;2023-04-20T04:56:47;99184.68;;;21.48;37.59
48718;BME280;34521;33.042;-96.586;2023-04-20T04:59:12;99196.82;;;21.67;37.27
48718;BME280;34521;33.042;-96.586;2023-04-20T05:01:36;99222.38;;;21.87;37.00
48718;BME280;34521;33.042;-96.586;2023-04-20T05:04:02;99244.53;;;21.60;36.70
48718;BME280;34521;33.042;-96.586;2023-04-20T05:06:27;99248.23;;;21.65;36.97
48718;BME280;34521;33.042;-96.586;2023-04-20T05:08:52;99252.89;;;20.38;38.35
48718;BME280;34521;33.042;-96.586;2023-04-20T05:11:17;99254.84;;;20.28;37.54
48718;BME280;34521;33.042;-96.586;2023-04-20T05:13:42;99260.12;;;20.55;37.54
48718;BME280;34521;33.042;-96.586;2023-04-20T05:16:07;99260.92;;;20.79;36.96
48718;BME280;34521;33.042;-96.586;2023-04-20T05:18:32;99256.96;;;21.37;36.14
48718;BME280;34521;33.042;-96.586;2023-04-20T05:20:57;99253.11;;;21.35;36.23
48718;BME280;34521;33.042;-96.586;2023-04-20T05:23:22;99257.11;;;21.22;36.53
48718;BME280;34521;33.042;-96.586;2023-04-20T05:25:47;99258.19;;;21.18;36.38
48718;BME280;34521;33.042;-96.586;2023-04-20T05:28:12;99254.14;;;21.16;36.44
48718;BME280;34521;33.042;-96.586;2023-04-20T05:30:37;99256.12;;;21.50;36.39
48718;BME280;34521;33.042;-96.586;2023-04-20T05:33:02;99260.69;;;21.60;36.34
48718;BME280;34521;33.042;-96.586;2023-04-20T05:35:27;99257.83;;;21.42;35.96
48718;BME280;34521;33.042;-96.586;2023-04-20T05:37:52;99258.61;;;21.60;35.76
48718;BME280;34521;33.042;-96.586;2023-04-20T05:40:17;99258.12;;;20.37;39.98
48718;BME280;34521;33.042;-96.586;2023-04-20T05:42:43;99263.73;;;20.92;39.91
48718;BME280;34521;33.042;-96.586;2023-04-20T05:45:10;99265.73;;;21.13;41.17
48718;BME280;34521;33.042;-96.586;2023-04-20T05:47:33;99267.56;;;20.98;40.12
48718;BME280;34521;33.042;-96.586;2023-04-20T05:49:58;99269.92;;;21.49;39.47
48718;BME280;34521;33.042;-96.586;2023-04-20T05:52:23;99268.39;;;21.47;39.03
48718;BME280;34521;33.042;-96.586;2023-04-20T05:54:48;99265.96;;;21.70;38.49
48718;BME280;34521;33.042;-96.586;2023-04-20T05:57:13;99260.67;;;21.56;38.60
48718;BME280;34521;33.042;-96.586;2023-04-20T05:59:38;99257.37;;;21.56;38.43
48718;BME280;34521;33.042;-96.586;2023-04-20T06:02:03;99258.76;;;19.64;40.22
48718;BME280;34521;33.042;-96.586;2023-04-20T06:04:29;99255.45;;;20.09;39.12
48718;BME280;34521;33.042;-96.586;2023-04-20T06:06:54;99257.82;;;20.59;38.32
48718;BME280;34521;33.042;-96.586;2023-04-20T06:09:19;99258.91;;;21.53;36.63
48718;BME280;34521;33.042;-96.586;2023-04-20T06:11:49;99258.11;;;21.20;36.75
48718;BME280;34521;33.042;-96.586;2023-04-20T06:14:09;99259.56;;;20.84;37.35
48718;BME280;34521;33.042;-96.586;2023-04-20T06:16:34;99262.03;;;21.37;37.06
48718;BME280;34521;33.042;-96.586;2023-04-20T06:19:00;99264.09;;;21.10;37.14
48718;BME280;34521;33.042;-96.586;2023-04-20T06:21:25;99270.29;;;21.11;36.82
48718;BME280;34521;33.042;-96.586;2023-04-20T06:23:50;99267.26;;;21.63;36.49
48718;BME280;34521;33.042;-96.586;2023-04-20T06:26:14;99275.95;;;21.20;36.82
48718;BME280;34521;33.042;-96.586;2023-04-20T06:28:40;99281.85;;;21.60;36.66
48718;BME280;34521;33.042;-96.586;2023-04-20T06:31:05;99280.88;;;21.55;36.47
48718;BME280;34521;33.042;-96.586;2023-04-20T06:33:31;99285.55;;;21.33;36.68
48718;BME280;34521;33.042;-96.586;2023-04-20T06:35:55;99279.43;;;21.52;36.92
48718;BME280;34521;33.042;-96.586;2023-04-20T06:38:20;99275.28;;;20.24;40.18
48718;BME280;34521;33.042;-96.586;2023-04-20T06:40:45;99272.62;;;20.35;41.26
48718;BME280;34521;33.042;-96.586;2023-04-20T06:43:11;99274.51;;;20.52;42.54
48718;BME280;34521;33.042;-96.586;2023-04-20T06:45:36;99275.92;;;20.75;41.17
48718;BME280;34521;33.042;-96.586;2023-04-20T06:48:01;99277.30;;;21.00;40.74
48718;BME280;34521;33.042;-96.586;2023-04-20T06:50:26;99274.85;;;21.16;40.20
48718;BME280;34521;33.042;-96.586;2023-04-20T06:52:51;99277.57;;;21.47;39.74
48718;BME280;34521;33.042;-96.586;2023-04-20T06:55:17;99278.81;;;20.19;40.18
48718;BME280;34521;33.042;-96.586;2023-04-20T06:57:41;99281.98;;;19.39;40.68
48718;BME280;34521;33.042;-96.586;2023-04-20T07:00:08;99282.33;;;20.06;40.39
48718;BME280;34521;33.042;-96.586;2023-04-20T07:02:42;99282.74;;;20.76;38.24
48718;BME280;34521;33.042;-96.586;2023-04-20T07:05:05;99274.26;;;20.74;37.91
48718;BME280;34521;33.042;-96.586;2023-04-20T07:07:23;99272.37;;;21.05;37.85
48718;BME280;34521;33.042;-96.586;2023-04-20T07:09:46;99267.74;;;20.75;37.97
48718;BME280;34521;33.042;-96.586;2023-04-20T07:12:12;99270.23;;;21.33;37.32
48718;BME280;34521;33.042;-96.586;2023-04-20T07:14:37;99271.69;;;21.39;37.56
48718;BME280;34521;33.042;-96.586;2023-04-20T07:17:02;99268.36;;;21.66;36.98
48718;BME280;34521;33.042;-96.586;2023-04-20T07:19:27;99265.25;;;21.50;37.08
48718;BME280;34521;33.042;-96.586;2023-04-20T07:21:52;99269.60;;;21.42;36.91
48718;BME280;34521;33.042;-96.586;2023-04-20T07:24:17;99267.66;;;21.74;36.85
48718;BME280;34521;33.042;-96.586;2023-04-20T07:26:42;99267.31;;;21.30;37.11
48718;BME280;34521;33.042;-96.586;2023-04-20T07:29:13;99263.61;;;21.18;37.25
48718;BME280;34521;33.042;-96.586;2023-04-20T07:31:33;99258.01;;;21.55;36.75
48718;BME280;34521;33.042;-96.586;2023-04-20T07:33:58;99260.87;;;21.59;37.05
48718;BME280;34521;33.042;-96.586;2023-04-20T07:36:23;99260.57;;;21.51;37.29
48718;BME280;34521;33.042;-96.586;2023-04-20T07:38:48;99261.18;;;19.84;41.65
48718;BME280;34521;33.042;-96.586;2023-04-20T07:41:13;99257.67;;;20.00;42.22
48718;BME280;34521;33.042;-96.586;2023-04-20T07:43:43;99257.82;;;18.67;42.51
48718;BME280;34521;33.042;-96.586;2023-04-20T07:46:03;99255.46;;;20.22;40.15
48718;BME280;34521;33.042;-96.586;2023-04-20T07:48:28;99245.67;;;20.48;38.77
48718;BME280;34521;33.042;-96.586;2023-04-20T07:50:53;99240.82;;;21.09;37.82
48718;BME280;34521;33.042;-96.586;2023-04-20T07:53:18;99232.98;;;21.22;37.62
48718;BME280;34521;33.042;-96.586;2023-04-20T07:55:43;99227.17;;;21.20;37.73
48718;BME280;34521;33.042;-96.586;2023-04-20T07:58:08;99229.17;;;21.37;37.52
48718;BME280;34521;33.042;-96.586;2023-04-20T08:00:33;99221.23;;;21.16;37.51
48718;BME280;34521;33.042;-96.586;2023-04-20T08:02:58;99216.38;;;21.69;37.29
48718;BME280;34521;33.042;-96.586;2023-04-20T08:05:23;99215.20;;;21.42;37.29
48718;BME280;34521;33.042;-96.586;2023-04-20T08:07:48;99213.81;;;21.54;37.04
48718;BME280;34521;33.042;-96.586;2023-04-20T08:10:13;99213.35;;;21.17;37.37
48718;BME280;34521;33.042;-96.586;2023-04-20T08:12:39;99217.72;;;21.39;37.25
48718;BME280;34521;33.042;-96.586;2023-04-20T08:15:04;99216.10;;;21.49;37.04
48718;BME280;34521;33.042;-96.586;2023-04-20T08:17:28;99218.83;;;21.60;37.04
48718;BME280;34521;33.042;-96.586;2023-04-20T08:19:54;99216.32;;;21.45;36.98
48718;BME280;34521;33.042;-96.586;2023-04-20T08:22:18;99218.33;;;21.61;37.10
48718;BME280;34521;33.042;-96.586;2023-04-20T08:24:44;99218.16;;;21.82;36.91
48718;BME280;34521;33.042;-96.586;2023-04-20T08:27:09;99226.40;;;21.49;36.89
48718;BME280;34521;33.042;-96.586;2023-04-20T08:29:33;99222.35;;;19.02;39.66
48718;BME280;34521;33.042;-96.586;2023-04-20T08:31:59;99227.03;;;19.27;39.74
48718;BME280;34521;33.042;-96.586;2023-04-20T08:34:24;99222.02;;;20.68;37.46
48718;BME280;34521;33.042;-96.586;2023-04-20T08:36:49;99223.32;;;21.03;37.07
48718;BME280;34521;33.042;-96.586;2023-04-20T08:39:20;99228.09;;;19.57;41.17
48718;BME280;34521;33.042;-96.586;2023-04-20T08:41:39;99232.79;;;19.39;42.99
48718;BME280;34521;33.042;-96.586;2023-04-20T08:44:05;99232.89;;;20.64;40.45
48718;BME280;34521;33.042;-96.586;2023-04-20T08:46:30;99240.34;;;20.91;39.62
48718;BME280;34521;33.042;-96.586;2023-04-20T08:48:55;99243.48;;;21.10;39.25
48718;BME280;34521;33.042;-96.586;2023-04-20T08:51:20;99246.75;;;21.34;38.38
48718;BME280;34521;33.042;-96.586;2023-04-20T08:53:45;99252.56;;;21.31;38.01
48718;BME280;34521;33.042;-96.586;2023-04-20T08:56:10;99251.34;;;21.61;37.81
48718;BME280;34521;33.042;-96.586;2023-04-20T08:58:35;99255.26;;;21.52;38.25
48718;BME280;34521;33.042;-96.586;2023-04-20T09:01:00;99254.39;;;21.17;37.95
48718;BME280;34521;33.042;-96.586;2023-04-20T09:03:31;99255.96;;;21.43;37.87
48718;BME280;34521;33.042;-96.586;2023-04-20T09:05:50;99255.80;;;21.33;37.60
48718;BME280;34521;33.042;-96.586;2023-04-20T09:08:15;99256.91;;;21.53;37.28
48718;BME280;34521;33.042;-96.586;2023-04-20T09:10:42;99262.90;;;21.30;37.64
48718;BME280;34521;33.042;-96.586;2023-04-20T09:13:05;99265.62;;;21.25;37.67
48718;BME280;34521;33.042;-96.586;2023-04-20T09:15:31;99263.85;;;21.33;37.55
48718;BME280;34521;33.042;-96.586;2023-04-20T09:17:55;99265.96;;;21.39;37.62
48718;BME280;34521;33.042;-96.586;2023-04-20T09:20:30;99268.76;;;19.01;40.73
48718;BME280;34521;33.042;-96.586;2023-04-20T09:22:45;99270.23;;;18.59;40.86
48718;BME280;34521;33.042;-96.586;2023-04-20T09:25:13;99272.79;;;20.02;39.44
48718;BME280;34521;33.042;-96.586;2023-04-20T09:27:35;99265.62;;;20.91;37.76
48718;BME280;34521;33.042;-96.586;2023-04-20T09:30:01;99264.72;;;21.22;36.95
48718;BME280;34521;33.042;-96.586;2023-04-20T09:32:26;99265.67;;;20.95;37.10
48718;BME280;34521;33.042;-96.586;2023-04-20T09:34:50;99271.67;;;20.27;39.61
48718;BME280;34521;33.042;-96.586;2023-04-20T09:37:16;99277.66;;;19.82;41.67
48718;BME280;34521;33.042;-96.586;2023-04-20T09:39:42;99279.94;;;19.58;43.63
48718;BME280;34521;33.042;-96.586;2023-04-20T09:42:06;99279.40;;;20.39;42.44
48718;BME280;34521;33.042;-96.586;2023-04-20T09:44:32;99277.53;;;21.04;40.39
48718;BME280;34521;33.042;-96.586;2023-04-20T09:47:00;99278.95;;;21.15;40.19
48718;BME280;34521;33.042;-96.586;2023-04-20T09:49:21;99278.57;;;21.27;39.88
48718;BME280;34521;33.042;-96.586;2023-04-20T09:51:45;99278.83;;;20.86;39.97
48718;BME280;34521;33.042;-96.586;2023-04-20T09:54:11;99283.68;;;21.11;39.59
48718;BME280;34521;33.042;-96.586;2023-04-20T09:56:36;99283.92;;;21.33;39.09
48718;BME280;34521;33.042;-96.586;2023-04-20T09:59:02;99284.82;;;21.15;38.85
48718;BME280;34521;33.042;-96.586;2023-04-20T10:01:28;99281.78;;;21.44;38.72
48718;BME280;34521;33.042;-96.586;2023-04-20T10:03:52;99282.95;;;21.54;38.50
48718;BME280;34521;33.042;-96.586;2023-04-20T10:06:20;99284.09;;;21.35;38.31
48718;BME280;34521;33.042;-96.586;2023-04-20T10:08:41;99285.94;;;21.13;38.64
48718;BME280;34521;33.042;-96.586;2023-04-20T10:11:06;99282.76;;;21.45;38.14
48718;BME280;34521;33.042;-96.586;2023-04-20T10:13:33;99280.91;;;21.09;38.65
48718;BME280;34521;33.042;-96.586;2023-04-20T10:15:57;99279.85;;;21.62;38.21
48718;BME280;34521;33.042;-96.586;2023-04-20T10:18:22;99273.35;;;20.03;39.96
48718;BME280;34521;33.042;-96.586;2023-04-20T10:20:46;99270.35;;;18.39;41.81
48718;BME280;34521;33.042;-96.586;2023-04-20T10:23:11;99262.88;;;19.13;41.69
48718;BME280;34521;33.042;-96.586;2023-04-20T10:25:36;99261.50;;;20.48;39.15
48718;BME280;34521;33.042;-96.586;2023-04-20T10:28:07;99251.24;;;20.94;37.77
48718;BME280;34521;33.042;-96.586;2023-04-20T10:30:27;99245.92;;;20.91;37.88
48718;BME280;34521;33.042;-96.586;2023-04-20T10:33:02;99241.93;;;21.21;37.50
48718;BME280;34521;33.042;-96.586;2023-04-20T10:35:16;99245.43;;;19.97;41.78
48718;BME280;34521;33.042;-96.586;2023-04-20T10:37:46;99245.90;;;19.54;43.59
48718;BME280;34521;33.042;-96.586;2023-04-20T10:40:07;99247.57;;;19.78;43.54
48718;BME280;34521;33.042;-96.586;2023-04-20T10:42:44;99246.75;;;20.55;41.44
48718;BME280;34521;33.042;-96.586;2023-04-20T10:44:56;99253.25;;;21.43;40.20
48718;BME280;34521;33.042;-96.586;2023-04-20T10:47:27;99257.69;;;21.68;39.63
48718;BME280;34521;33.042;-96.586;2023-04-20T10:49:47;99265.00;;;21.01;39.76
48718;BME280;34521;33.042;-96.586;2023-04-20T10:52:11;99267.97;;;20.72;40.23
48718;BME280;34521;33.042;-96.586;2023-04-20T10:54:37;99274.73;;;21.38;39.78
48718;BME280;34521;33.042;-96.586;2023-04-20T10:57:02;99281.21;;;21.47;39.27
48718;BME280;34521;33.042;-96.586;2023-04-20T10:59:28;99284.02;;;21.53;39.03
48718;BME280;34521;33.042;-96.586;2023-04-20T11:01:53;99284.91;;;21.32;39.25
48718;BME280;34521;33.042;-96.586;2023-04-20T11:04:17;99282.35;;;21.31;38.81
48718;BME280;34521;33.042;-96.586;2023-04-20T11:06:45;99278.20;;;21.36;39.03
48718;BME280;34521;33.042;-96.586;2023-04-20T11:09:17;99278.57;;;21.34;38.70
48718;BME280;34521;33.042;-96.586;2023-04-20T11:11:32;99280.21;;;21.31;38.79
48718;BME280;34521;33.042;-96.586;2023-04-20T11:14:06;99288.63;;;21.39;38.81
48718;BME280;34521;33.042;-96.586;2023-04-20T11:16:22;99296.28;;;21.36;38.49
48718;BME280;34521;33.042;-96.586;2023-04-20T11:18:50;99299.53;;;21.37;38.49
48718;BME280;34521;33.042;-96.586;2023-04-20T11:21:12;99298.78;;;18.84;41.38
48718;BME280;34521;33.042;-96.586;2023-04-20T11:23:37;99302.25;;;18.21;42.41
48718;BME280;34521;33.042;-96.586;2023-04-20T11:26:02;99310.82;;;20.14;40.55
48718;BME280;34521;33.042;-96.586;2023-04-20T11:28:27;99313.33;;;20.26;39.13
48718;BME280;34521;33.042;-96.586;2023-04-20T11:30:52;99314.29;;;20.94;38.18
48718;BME280;34521;33.042;-96.586;2023-04-20T11:33:25;99317.62;;;19.71;41.95
48718;BME280;34521;33.042;-96.586;2023-04-20T11:35:42;99318.68;;;19.27;43.68
48718;BME280;34521;33.042;-96.586;2023-04-20T11:38:08;99325.25;;;19.76;44.05
48718;BME280;34521;33.042;-96.586;2023-04-20T11:40:33;99326.27;;;20.77;42.36
48718;BME280;34521;33.042;-96.586;2023-04-20T11:42:58;99324.93;;;20.96;41.50
48718;BME280;34521;33.042;-96.586;2023-04-20T11:45:23;99321.07;;;20.82;40.90
48718;BME280;34521;33.042;-96.586;2023-04-20T11:47:48;99321.41;;;21.47;39.79
48718;BME280;34521;33.042;-96.586;2023-04-20T11:50:13;99317.41;;;21.14;40.20
48718;BME280;34521;33.042;-96.586;2023-04-20T11:52:38;99308.60;;;21.37;39.73
48718;BME280;34521;33.042;-96.586;2023-04-20T11:55:03;99308.12;;;21.55;39.19
48718;BME280;34521;33.042;-96.586;2023-04-20T11:57:28;99304.59;;;20.85;39.92
48718;BME280;34521;33.042;-96.586;2023-04-20T11:59:53;99306.27;;;21.11;39.22
48718;BME280;34521;33.042;-96.586;2023-04-20T12:02:18;99308.31;;;21.19;39.08
48718;BME280;34521;33.042;-96.586;2023-04-20T12:04:43;99316.38;;;21.60;38.74
48718;BME280;34521;33.042;-96.586;2023-04-20T12:07:08;99312.26;;;21.16;39.20
48718;BME280;34521;33.042;-96.586;2023-04-20T12:09:33;99314.10;;;21.23;39.23
48718;BME280;34521;33.042;-96.586;2023-04-20T12:11:58;99315.10;;;21.03;38.86
48718;BME280;34521;33.042;-96.586;2023-04-20T12:14:23;99309.55;;;20.41;40.13
48718;BME280;34521;33.042;-96.586;2023-04-20T12:16:48;99309.76;;;18.15;42.66
48718;BME280;34521;33.042;-96.586;2023-04-20T12:19:13;99319.29;;;18.43;44.18
48718;BME280;34521;33.042;-96.586;2023-04-20T12:21:39;99322.64;;;20.21;40.07
48718;BME280;34521;33.042;-96.586;2023-04-20T12:24:04;99330.04;;;20.69;38.88
48718;BME280;34521;33.042;-96.586;2023-04-20T12:26:28;99333.96;;;20.99;38.40
48718;BME280;34521;33.042;-96.586;2023-04-20T12:28:54;99338.38;;;21.06;38.39
48718;BME280;34521;33.042;-96.586;2023-04-20T12:31:19;99333.32;;;21.22;38.71